Time Trial Results

ALL-TIME CLUB TIME TRIAL RESULTS

4th Side Road Course – 17km – current to: August 19, 2015
CR – Course Record;  WCR – Women’s Course Record;  EM-CR – Course Record (no aero equipment);  SS-CR – Single Speed Course Record

Aero: TT bike, aero helmet/wheels;  Semi: road bike with clip-on extensions, aero helmet;  All others: standard road bike/helmet/wheels

Place Name Time km/hr Date
1 Ryan Roth 21:27.49 47.53 100.00% 19-Aug-15 CR aero
2 Ryan Roth 21:30.39 47.43 99.78% 21-Aug-13 CR-old aero
3 Ryan Roth 21:54.05 46.57 97.98% 24-Jul-13 CR-old aero
4 Ryan Roth 22:08.49 46.07 96.91% 18-Jul-12 CR-old aero
5 Ryan Roth 22:36.51 45.12 94.91% 21-May-14 aero
6 Robert Gutgesell 22:43.29 44.89 94.44% 20-May-15 aero
7 Ryan Roth 23:01.44 44.30 93.20% 20-May-15 aero
8 Robert Gutgesell 23:23.93 43.59 91.71% 21-May-14 aero
9 Kyle Boorsma 23:35.84 43.23 90.93% 8-Jul-15 aero
10 Anton Varabei 23:52.17 42.73 89.90% 18-Aug-10 CR-old aero
11 Andy Mill 23:59.68 42.50 89.43% 23-Jul-14 aero
12 Andy Mill 24:02.93 42.41 89.23% 18-Jun-14 aero
13 Bayden Pritchard 24:07.96 42.27 88.92% 8-Jul-15 aero
14 Curtis Donnahee 24:08.73 42.24 88.87% 17-Aug-11 aero
15 Andy Mill 24:09.69 42.22 88.81% 21-Aug-13 aero
16 Andy Mill 24:15.21 42.06 88.47% 24-Jul-13 aero
17 Andy Mill 24:23.23 41.83 87.99% 17-Jun-15 aero
18 Andy Mill 24:28.04 41.69 87.70% 19-Aug-15 aero
19 Andy Mill 24:35.78 41.47 87.24% 19-Jun-13 aero
20 Bayden Pritchard 24:41.90 41.30 86.88% 26-Aug-14 semi
21 Benoit Boulay 24:47.77 41.14 86.54% 8-Jul-15 semi
22 Andy Mill 24:48.26 41.12 86.51% 21-May-14 aero
23 Michael Hay 24:51.87 41.02 86.30% 17-Aug-11 aero
24 Bayden Pritchard 24:58.53 40.84 85.92% 21-Jul-10 CR-old aero
25 Gabhan Chalmers 25:00.34 40.79 85.81% 17-Jun-15 aero
26 Derek Snider 25:03.96 40.69 85.61% 13-Jun-12 EM-CR
27 Derek Snider 25:05.12 40.66 85.54% 26-Aug-14
28 Kyle Boorsma 25:06.66 40.62 85.45% 17-Jun-15 aero
29 Jeff Tompkins 25:09.82 40.53 85.27% 24-Jun-09 CR-old aero
30 Bayden Pritchard 25:10.96 40.50 85.21% 17-Aug-11 EM-CR-old
31 Derek Snider 25:13.22 40.44 85.08% 18-Jul-12
32 Gabhan Chalmers 25:18.95 40.29 84.76% 19-Jun-13 aero
33 Jason May 25:24.29 40.15 84.46% 15-Jun-11 aero
34 Gabhan Chalmers 25:26.01 40.10 84.37% 21-May-14 semi
35 Bayden Pritchard 25:29.98 40.00 84.15% 20-May-15 semi
36 Bayden Pritchard 25:32.94 39.92 83.99% 17-Jun-15 aero
37 Anton Varabei 25:34.26 39.89 83.92% 21-Jul-10 EM-CR-old
38 Bayden Pritchard 25:34.86 39.87 83.88% 18-Jul-12
39 Gabhan Chalmers 25:38.98 39.77 83.66% 23-Jul-14 aero
40 Bayden Pritchard 25:39.36 39.76 83.64% 16-Jun-10 aero
41 Gabhan Chalmers 25:40.06 39.74 83.60% 20-May-15 semi
42 Mike Dennis 25:42.52 39.68 83.47% 24-Jun-09
43 Ben Dutton 25:43.96 39.64 83.39% 8-Jul-15 semi
44 Bayden Pritchard 25:45.33 39.60 83.31% 18-Aug-10
45 Andy Mill 25:45.39 39.60 83.31% 15-Aug-12
46 Gabhan Chalmers 25:46.68 39.57 83.24% 21-Aug-13 aero
47 Derek Snider 25:47.13 39.56 83.22% 24-Jul-13
48 Andy Mill 25:51.29 39.45 82.99% 20-May-15 semi
49 Bayden Pritchard 25:52.28 39.43 82.94% 15-Aug-12
50 Andy Mill 25:54.52 39.37 82.82% 18-Jul-12
51 Tom Elliot 25:57.20 39.30 82.68% 19-Jun-13
52 Anton Varabei 25:58.79 39.26 82.60% 16-May-12
53 Curtis Donnahee 25:59.11 39.25 82.58% 19-Jul-07 CR-old
54 Anton Varabei 25:59.33 39.25 82.57% 16-Jun-10
55 Mike Dennis 26:00.46 39.22 82.51% 15-May-08
56 Andy Mill 26:01.62 39.19 82.45% 13-Jun-12
57 Aaron Prieur 26:02.08 39.18 82.42% 26-Aug-14
58 Liam Brennan 26:05.90 39.08 82.22% 24-Jun-09
59 Derek Snider 26:07.99 39.03 82.11% 16-May-12
60 Andy Mill 26:08.14 39.03 82.10% 15-May-13
61 Jason May 26:09.79 38.99 82.02% 18-Jul-12 aero
62 Darren Johnston 26:10.65 38.96 81.97% 18-Jun-14 aero
63 Adam Woods 26:11.02 38.96 81.95% 17-Jun-15
64 Gabhan Chalmers 26:17.13 38.80 81.63% 15-May-13 aero
65 Kevin Bodbyl 26:17.81 38.79 81.60% 19-Aug-15
66 Gabhan Chalmers 26:23.03 38.66 81.33% 15-Jun-11 bars
67 Kevin Bodbyl 26:25.29 38.60 81.21% 8-Jul-15
68 Adam Woods 26:28.98 38.52 81.03% 8-Jul-15
69 Ben Dutton 26:29.98 38.49 80.98% 17-Jun-15
70 Adam Woods 26:30.87 38.47 80.93% 19-Jun-13
71 Liam Brennan 26:34.36 38.39 80.75% 15-Jul-09
72 Matt Ward 26:37.59 38.31 80.59% 18-Aug-10 aero
73 Benoit Boulay 26:39.19 38.27 80.51% 26-Aug-14
74 Rachel O’Reilly 26:39.61 38.26 80.49% 18-Aug-10 WCR aero
75 Ben Rosinski 26:40.20 38.25 80.46% 16-Sep-09
76 Bayden Pritchard 26:41.90 38.20 80.37% 18-May-10
77 Corey Rogerson 26:41.90 38.20 80.37% 17-Aug-11
78 Gabhan Chalmers 26:42.63 38.19 80.34% 16-Sep-09
79 Thomas Lees 26:49.08 38.03 80.01% 19-Jul-07
80 Tom Elliot 26:49.67 38.02 79.98% 15-May-13 aero
81 Rachel O’Reilly 26:50.64 38.00 79.94% 18-May-10 WCR-old aero
82 Nathan Poulton 26:53.95 37.92 79.77% 15-May-13 SS-CR aero – singlespeed
83 Adam Woods 26:54.64 37.90 79.74% 21-Aug-13
84 John Kwarta 26:54.77 37.90 79.73% 18-Aug-10
85 Liam Brennan 26:56.20 37.87 79.66% 18-Sep-08
86 John Parrott 26:56.56 37.86 79.64% 26-Aug-14
87 Bayden Pritchard 26:57.44 37.84 79.60% 24-Jun-09
88 Kevin Bodbyl 26:58.30 37.82 79.56% 17-Jun-15
89 Curtis Donnahee 26:58.52 37.81 79.55% 17-May-07 CR-old
90 Alex Lefebvre 26:59.23 37.80 79.51% 8-Jul-15
91 Ben Dutton 27:07.27 37.61 79.12% 20-May-15
92 Jim Brogden 27:09.64 37.55 79.00% 21-Jun-07
93 Tim Plunkett 27:10.79 37.53 78.95% 20-May-09
94 Mark Dipple 27:20.85 37.30 78.46% 8-Jul-15 semi
95 Rachel O’Reilly 27:22.75 37.25 78.37% 21-Jul-10 aero
96 Joe Rousseau 27:23.49 37.24 78.34% 15-Jul-09
97 Liam Brennan 27:23.51 37.24 78.34% 20-May-09
98 Darren Johnston 27:24.91 37.21 78.27% 20-May-15 semi
99 Kyle Smith 27:32.00 37.05 77.94% 17-May-07
100 Liam Brennan 27:32.04 37.05 77.93% 21-Aug-08
101 Rachel O’Reilly 27:32.71 37.03 77.90% 16-Jun-10 aero
102 Adam Woods 27:33.33 37.02 77.87% 15-May-08
103 John Kwarta 27:34.84 36.98 77.80% 21-Jul-10
104 Rob Nespolo 27:35.90 36.96 77.75% 26-Aug-14
105 Gabhan Chalmers 27:36.63 36.94 77.72% 19-Aug-09
106 Joe Rousseau 27:38.44 36.90 77.63% 17-Jul-08
107 Jason May 27:38.62 36.90 77.62% 24-Jun-09
108 Mark Chappel 27:39.60 36.88 77.58% 20-May-15
109 Rob Nespolo 27:40.03 36.87 77.56% 19-Jun-13
110 Darren Johnston 27:41.20 36.84 77.50% 8-Jul-15 semi
111 Mark Dipple 27:43.47 36.79 77.40% 17-Jun-15
112 Brian Fritz 27:44.38 36.77 77.36% 15-May-13 aero
113 Mike McGill 27:46.96 36.71 77.24% 18-Aug-10
114 Jakub Kwiecinski 27:48.08 36.69 77.18% 15-Jul-09
115 Alex Lefebvre 27:48.09 36.69 77.18% 14-Jun-14
116 Adam Finn 27:48.43 36.68 77.17% 13-Jun-12
117 Joe Rousseau 27:52.24 36.60 76.99% 15-May-08
118 Robert Nespolo 27:54.20 35.55 76.90% 13-Jun-12
119 Thomas Lees 27:54.84 36.54 76.87% 20-May-09
120 Gabhan Chalmers 27:56.16 36.51 76.81% 18-Sep-08
121 Jason May 27:57.74 36.48 76.74% 16-Sep-09
122 Mark Keating 27:58.34 36.46 76.71% 21-Jun-07
123 Robert Nespolo 27:59.55 36.44 76.66% 18-Jul-12
124 Ingo Schnuelle 27:59.78 36.43 76.65% 17-Jun-15
125 Tara MacDonald 28:00.05 36.43 76.63% 8-Jul-15
126 Mark Chappel 28:00.15 36.43 76.63% 8-Jul-15
127 Ingo Schnuelle 28:01.85 36.39 76.55% 8-Jul-15
128 Kevin Bodbyl 28:03.53 36.35 76.48% 26-Aug-14
129 Liam Brennan 28:07.13 36.27 76.31% 17-Jul-08
130 Darren Johnston 28:07.29 36.27 76.31% 15-May-13 semi
131 Adam Woods 28:11.93 36.17 76.10% 21-Jun-07
132 Rob Nespolo 28:16.20 36.08 75.90% 15-May-13
133 Gabhan Chalmers 28:16.31 36.08 75.90% 17-Jul-08
134 Tara MacDonald 28:17.94 36.04 75.83% 17-Jun-15
135 Kevin Bodbyl 28:18.33 36.04 75.81% 20-May-15
136 Rachel O’Reilly 28:18.79 36.03 75.79% 17-Aug-11
137 Robert Nespolo 28:22.37 35.95 75.63% 15-Aug-12
138 Colin Cameron 28:23.87 35.92 75.56% 18-Jul-12
139 Kevin Bodbyl 28:25.84 35.88 75.48% 23-Jul-14
140 John Kwarta 28:26.32 35.87 75.45% 20-May-09
141 Mark Keating 28:26.51 35.86 75.45% 17-Jul-08
142 Josh DeCloet 28:26.80 35.86 75.43% 18-Aug-10
143 Dave Scott 28:27.16 35.85 75.42% 17-May-07 CR-old
144 Jason May 28:27.43 35.84 75.41% 18-May-10
145 Jakub Kwiecinski 28:29.24 35.81 75.33% 24-Jun-09
146 Drew Edwards 28:29.40 35.80 75.32% 20-May-09
147 Jason May 28:30.65 35.78 75.26% 21-Jul-10
148 Mark Dipple 28:33.62 35.71 75.13% 15-May-13
149 Joe Rousseau 28:36.71 35.65 75.00% 19-Jul-07
150 Darren Johnston 28:39.94 35.58 74.86% 21-May-14 aero
151 Gord Drewitt 28:42.32 35.53 74.75% 8-Jul-15
152 Jason May 28:44.79 35.48 74.65% 20-May-09
153 Andrew Durward 28:47.98 35.42 74.51% 17-May-07
154 Rachel O’Reilly 28:49.74 35.38 74.43% 25-May-11 semi
155 Russel Watson 28:52.09 35.33 74.33% 17-Jun-15 semi
156 Gord Drewitt 28:56.82 35.24 74.13% 19-Aug-15
157 Cory Darling 28:52.86 35.32 74.30% 21-May-14
158 Mark Keating 28:55.15 35.27 74.20% 20-May-09
159 Jason May 28:55.68 35.26 74.18% 17-May-07
160 Josh DeCloet 28:58.12 35.21 74.07% 21-Jul-10
161 Gord Drewitt 29:00.21 35.17 73.98% 17-Jun-15
162 Tom Peters 29:02.89 35.11 73.87% 18-May-10
163 Malcolm Bow 29:03.92 35.09 73.83% 17-May-07
164 Dan Scott 29:05.68 35.06 73.75% 17-May-07
165 Dermod Mark 29:08.37 35.00 73.64% 19-Jul-07
166 Malcolm Bow 29:09.22 34.99 73.60% 21-Jun-07
167 Dave Tompkins 29:09.62 34.98 73.59% 24-Jun-09
168 Dermod Mark 29:13.37 34.90 73.43% 17-Aug-11
169 Andrew Durward 29:14.77 34.88 73.37% 21-Jun-07
170 Tara MacDonald 29:16.03 34.85 73.32% 20-May-15
171 Mike Gibson 29:19.23 34.79 73.18% 21-Jul-10
172 Malcolm Bow 29:19.98 34.77 73.15% 15-May-08
173 Rob Nespolo 29:21.69 34.74 73.08% 16-May-12
174 Dermod Mark 29:22.28 34.73 73.06% 15-Sep-10
175 Dermod Mark 29:22.76 34.72 73.04% 21-Jun-07
176 Gord Drewitt 29:23.41 34.71 73.01% 19-Jun-13
177 Jakub Kwiecinski 29:31.67 34.54 72.67% 20-May-09
178 Andrew Durward 29:38.72 34.41 72.38% 18-May-10
179 Paul Nielsen 29:40.02 34.38 72.33% 21-Jun-07
180 Jim Wadleigh 29:44.31 34.30 72.16% 21-Jun-07
181 Adam Woods 29:51.71 34.16 71.86% 25-May-11
182 Gabhan Chalmers 30:00.81 33.98 71.50% 17-May-07
183 Gord Drewitt 30:01.56 33.97 71.47% 20-May-15
184 Dermod Mark 30:15.77 33.70 70.91% 18-Aug-10
185 Greg Franks 30:19.30 33.64 70.77% 19-Aug-15
186 Jacqueline Gauthier 30:19.32 33.64 70.77% 18-Aug-10
187 Jim Henning 30:22.96 33.57 70.63% 17-May-07
188 Mike Lewitzky 30:28.20 33.48 70.42% 18-Sep-08
189 Dermod Mark 30:32.60 33.40 70.25% 20-Sep-07
190 Dermod Mark 30:39.28 33.27 70.00% 21-Aug-08
191 Mike Lewitzky 30:42.86 33.21 69.86% 17-Jul-08
192 Dermod Mark 30:44.45 33.18 69.80% 15-May-08
193 Russel Watson 30:45.25 33.17 69.77% 20-May-15
194 Dermod Mark 30:46.91 33.14 69.71% 21-Jul-10
195 Meg Thorburn 31:07.33 32.77 68.95% 19-Aug-09 WCR-old
196 Gord Skinner 31:15.29 32.63 68.66% 15-May-13
197 Dermod Mark 31:17.15 32.60 68.59% 16-Sep-09
198 Dermod Mark 31:24.27 32.48 68.33% 17-May-07
199 Meg Thorburn 31:27.53 32.42 68.21% 15-May-08 WCR-old
200 Dermod Mark 31:31.90 32.35 68.05% 20-May-09
201 Lorenz Calcagno 31:45.10 32.12 67.58% 20-May-15
202 Mike Lewitzky 31:49.79 32.05 67.42% 15-May-08
203 Dermod Mark 31:52.53 32.00 67.32% 18-May-10
204 Jenni Vanos 31:59.60 31.88 67.07% 18-Aug-10
205 Karl Maiterth 32:37.60 31.26 65.77% 21-Jun-07
206 Dermod Mark 33:12.58 30.71 64.61% 18-Sep-08
207 Kristen Demchuk 34:05.21 29.92 62.95% 15-May-08
208 Darren Johnston 36:11.55 28.18 59.29% 19-Jun-13 aero

Comments are closed